sensor_id;sensor_type;location;lat;lon;timestamp;P1;durP1;ratioP1;P2;durP2;ratioP2
12445;SDS011;6287;50.984;7.022;2023-02-28T00:01:34;3.30;;;1.70;;
12445;SDS011;6287;50.984;7.022;2023-02-28T00:04:02;2.43;;;1.53;;
12445;SDS011;6287;50.984;7.022;2023-02-28T00:06:32;1.90;;;1.23;;
12445;SDS011;6287;50.984;7.022;2023-02-28T00:09:05;2.43;;;1.50;;
12445;SDS011;6287;50.984;7.022;2023-02-28T00:11:30;2.83;;;1.40;;
12445;SDS011;6287;50.984;7.022;2023-02-28T00:13:56;2.80;;;1.53;;
12445;SDS011;6287;50.984;7.022;2023-02-28T00:16:22;1.77;;;1.53;;
12445;SDS011;6287;50.984;7.022;2023-02-28T00:18:50;2.30;;;1.70;;
12445;SDS011;6287;50.984;7.022;2023-02-28T00:21:16;2.20;;;2.00;;
12445;SDS011;6287;50.984;7.022;2023-02-28T00:23:42;1.80;;;1.60;;
12445;SDS011;6287;50.984;7.022;2023-02-28T00:26:11;2.83;;;1.63;;
12445;SDS011;6287;50.984;7.022;2023-02-28T00:28:37;3.20;;;1.57;;
12445;SDS011;6287;50.984;7.022;2023-02-28T00:31:05;1.70;;;1.60;;
12445;SDS011;6287;50.984;7.022;2023-02-28T00:33:35;1.57;;;1.47;;
12445;SDS011;6287;50.984;7.022;2023-02-28T00:36:07;1.40;;;1.30;;
12445;SDS011;6287;50.984;7.022;2023-02-28T00:38:38;2.00;;;1.67;;
12445;SDS011;6287;50.984;7.022;2023-02-28T00:41:09;1.27;;;1.17;;
12445;SDS011;6287;50.984;7.022;2023-02-28T00:43:36;1.30;;;1.20;;
12445;SDS011;6287;50.984;7.022;2023-02-28T00:46:05;1.60;;;1.50;;
12445;SDS011;6287;50.984;7.022;2023-02-28T00:48:36;1.47;;;1.37;;
12445;SDS011;6287;50.984;7.022;2023-02-28T00:51:02;1.50;;;1.40;;
12445;SDS011;6287;50.984;7.022;2023-02-28T00:53:30;1.77;;;1.63;;
12445;SDS011;6287;50.984;7.022;2023-02-28T00:55:57;1.00;;;1.00;;
12445;SDS011;6287;50.984;7.022;2023-02-28T00:58:28;1.30;;;1.30;;
12445;SDS011;6287;50.984;7.022;2023-02-28T01:00:54;2.17;;;1.60;;
12445;SDS011;6287;50.984;7.022;2023-02-28T01:03:22;1.83;;;1.50;;
12445;SDS011;6287;50.984;7.022;2023-02-28T01:05:51;2.70;;;1.40;;
12445;SDS011;6287;50.984;7.022;2023-02-28T01:08:18;2.70;;;1.50;;
12445;SDS011;6287;50.984;7.022;2023-02-28T01:10:44;3.30;;;1.50;;
12445;SDS011;6287;50.984;7.022;2023-02-28T01:13:12;1.47;;;1.37;;
12445;SDS011;6287;50.984;7.022;2023-02-28T01:15:39;1.93;;;1.50;;
12445;SDS011;6287;50.984;7.022;2023-02-28T01:18:09;5.07;;;1.47;;
12445;SDS011;6287;50.984;7.022;2023-02-28T01:20:42;1.27;;;1.17;;
12445;SDS011;6287;50.984;7.022;2023-02-28T01:23:11;1.63;;;1.50;;
12445;SDS011;6287;50.984;7.022;2023-02-28T01:25:37;1.47;;;1.33;;
12445;SDS011;6287;50.984;7.022;2023-02-28T01:28:05;2.23;;;1.47;;
12445;SDS011;6287;50.984;7.022;2023-02-28T01:30:33;1.90;;;1.80;;
12445;SDS011;6287;50.984;7.022;2023-02-28T01:32:59;1.80;;;1.60;;
12445;SDS011;6287;50.984;7.022;2023-02-28T01:35:25;2.67;;;1.37;;
12445;SDS011;6287;50.984;7.022;2023-02-28T01:37:53;2.57;;;1.40;;
12445;SDS011;6287;50.984;7.022;2023-02-28T01:40:21;4.10;;;1.53;;
12445;SDS011;6287;50.984;7.022;2023-02-28T01:42:47;1.83;;;1.50;;
12445;SDS011;6287;50.984;7.022;2023-02-28T01:45:28;4.27;;;1.63;;
12445;SDS011;6287;50.984;7.022;2023-02-28T01:48:02;1.50;;;1.40;;
12445;SDS011;6287;50.984;7.022;2023-02-28T01:50:32;2.10;;;1.50;;
12445;SDS011;6287;50.984;7.022;2023-02-28T01:53:07;1.20;;;1.20;;
12445;SDS011;6287;50.984;7.022;2023-02-28T01:55:38;2.33;;;1.50;;
12445;SDS011;6287;50.984;7.022;2023-02-28T01:58:07;2.30;;;1.50;;
12445;SDS011;6287;50.984;7.022;2023-02-28T02:00:34;1.27;;;1.23;;
12445;SDS011;6287;50.984;7.022;2023-02-28T02:03:04;1.27;;;1.17;;
12445;SDS011;6287;50.984;7.022;2023-02-28T02:05:36;2.63;;;1.47;;
12445;SDS011;6287;50.984;7.022;2023-02-28T02:08:06;2.07;;;1.40;;
12445;SDS011;6287;50.984;7.022;2023-02-28T02:10:43;1.60;;;1.50;;
12445;SDS011;6287;50.984;7.022;2023-02-28T02:32:09;2.70;;;1.60;;
12445;SDS011;6287;50.984;7.022;2023-02-28T02:34:54;1.37;;;1.27;;
12445;SDS011;6287;50.984;7.022;2023-02-28T02:47:47;1.57;;;1.27;;
12445;SDS011;6287;50.984;7.022;2023-02-28T02:50:20;1.83;;;1.20;;
12445;SDS011;6287;50.984;7.022;2023-02-28T02:52:51;1.90;;;1.80;;
12445;SDS011;6287;50.984;7.022;2023-02-28T02:55:23;1.27;;;1.20;;
12445;SDS011;6287;50.984;7.022;2023-02-28T02:57:51;2.83;;;1.30;;
12445;SDS011;6287;50.984;7.022;2023-02-28T03:00:23;1.30;;;1.20;;
12445;SDS011;6287;50.984;7.022;2023-02-28T03:02:57;1.27;;;1.17;;
12445;SDS011;6287;50.984;7.022;2023-02-28T03:05:25;1.33;;;1.23;;
12445;SDS011;6287;50.984;7.022;2023-02-28T03:07:58;1.50;;;1.37;;
12445;SDS011;6287;50.984;7.022;2023-02-28T03:18:32;1.93;;;1.70;;
12445;SDS011;6287;50.984;7.022;2023-02-28T03:21:18;1.90;;;1.37;;
12445;SDS011;6287;50.984;7.022;2023-02-28T03:23:51;1.50;;;1.23;;
12445;SDS011;6287;50.984;7.022;2023-02-28T03:26:28;1.33;;;1.30;;
12445;SDS011;6287;50.984;7.022;2023-02-28T03:31:44;1.50;;;1.43;;
12445;SDS011;6287;50.984;7.022;2023-02-28T03:36:57;1.93;;;1.50;;
12445;SDS011;6287;50.984;7.022;2023-02-28T03:42:03;1.77;;;1.40;;
12445;SDS011;6287;50.984;7.022;2023-02-28T03:45:02;3.10;;;1.43;;
12445;SDS011;6287;50.984;7.022;2023-02-28T03:47:50;1.60;;;1.47;;
12445;SDS011;6287;50.984;7.022;2023-02-28T03:53:10;1.57;;;1.33;;
12445;SDS011;6287;50.984;7.022;2023-02-28T03:55:48;1.53;;;1.43;;
12445;SDS011;6287;50.984;7.022;2023-02-28T04:01:03;2.67;;;1.67;;
12445;SDS011;6287;50.984;7.022;2023-02-28T04:03:35;2.90;;;1.50;;
12445;SDS011;6287;50.984;7.022;2023-02-28T04:06:02;1.27;;;1.27;;
12445;SDS011;6287;50.984;7.022;2023-02-28T04:08:29;1.67;;;1.57;;
12445;SDS011;6287;50.984;7.022;2023-02-28T04:11:02;2.07;;;1.77;;
12445;SDS011;6287;50.984;7.022;2023-02-28T04:13:34;2.30;;;2.10;;
12445;SDS011;6287;50.984;7.022;2023-02-28T04:15:59;1.40;;;1.30;;
12445;SDS011;6287;50.984;7.022;2023-02-28T04:18:25;2.47;;;1.77;;
12445;SDS011;6287;50.984;7.022;2023-02-28T04:20:53;2.17;;;1.53;;
12445;SDS011;6287;50.984;7.022;2023-02-28T04:23:18;2.73;;;1.53;;
12445;SDS011;6287;50.984;7.022;2023-02-28T04:25:44;3.07;;;1.80;;
12445;SDS011;6287;50.984;7.022;2023-02-28T04:28:09;1.83;;;1.67;;
12445;SDS011;6287;50.984;7.022;2023-02-28T04:30:37;2.10;;;1.57;;
12445;SDS011;6287;50.984;7.022;2023-02-28T04:33:08;2.53;;;1.60;;
12445;SDS011;6287;50.984;7.022;2023-02-28T04:35:35;1.83;;;1.70;;
12445;SDS011;6287;50.984;7.022;2023-02-28T04:38:03;1.63;;;1.53;;
12445;SDS011;6287;50.984;7.022;2023-02-28T04:40:31;1.80;;;1.60;;
12445;SDS011;6287;50.984;7.022;2023-02-28T04:43:00;3.20;;;1.73;;
12445;SDS011;6287;50.984;7.022;2023-02-28T04:45:28;1.70;;;1.60;;
12445;SDS011;6287;50.984;7.022;2023-02-28T04:47:57;3.80;;;1.50;;
12445;SDS011;6287;50.984;7.022;2023-02-28T04:50:22;1.53;;;1.43;;
12445;SDS011;6287;50.984;7.022;2023-02-28T04:52:50;2.30;;;1.60;;
12445;SDS011;6287;50.984;7.022;2023-02-28T04:55:15;1.57;;;1.47;;
12445;SDS011;6287;50.984;7.022;2023-02-28T04:57:41;3.73;;;1.93;;
12445;SDS011;6287;50.984;7.022;2023-02-28T05:00:07;1.60;;;1.50;;
12445;SDS011;6287;50.984;7.022;2023-02-28T05:02:38;1.83;;;1.70;;
12445;SDS011;6287;50.984;7.022;2023-02-28T05:05:06;2.03;;;1.50;;
12445;SDS011;6287;50.984;7.022;2023-02-28T05:07:32;1.50;;;1.43;;
12445;SDS011;6287;50.984;7.022;2023-02-28T05:10:02;1.53;;;1.43;;
12445;SDS011;6287;50.984;7.022;2023-02-28T05:12:28;2.37;;;1.50;;
12445;SDS011;6287;50.984;7.022;2023-02-28T05:14:55;1.60;;;1.50;;
12445;SDS011;6287;50.984;7.022;2023-02-28T05:17:23;1.43;;;1.33;;
12445;SDS011;6287;50.984;7.022;2023-02-28T05:19:51;3.33;;;1.80;;
12445;SDS011;6287;50.984;7.022;2023-02-28T05:22:17;2.13;;;1.33;;
12445;SDS011;6287;50.984;7.022;2023-02-28T05:24:43;1.60;;;1.50;;
12445;SDS011;6287;50.984;7.022;2023-02-28T05:27:08;2.20;;;1.50;;
12445;SDS011;6287;50.984;7.022;2023-02-28T05:29:34;1.57;;;1.47;;
12445;SDS011;6287;50.984;7.022;2023-02-28T05:32:07;1.87;;;1.77;;
12445;SDS011;6287;50.984;7.022;2023-02-28T05:34:33;1.37;;;1.37;;
12445;SDS011;6287;50.984;7.022;2023-02-28T05:37:03;1.80;;;1.70;;
12445;SDS011;6287;50.984;7.022;2023-02-28T05:39:37;3.03;;;1.50;;
12445;SDS011;6287;50.984;7.022;2023-02-28T05:42:03;3.87;;;2.00;;
12445;SDS011;6287;50.984;7.022;2023-02-28T05:44:29;1.70;;;1.60;;
12445;SDS011;6287;50.984;7.022;2023-02-28T05:46:55;1.50;;;1.40;;
12445;SDS011;6287;50.984;7.022;2023-02-28T05:49:20;2.63;;;1.60;;
12445;SDS011;6287;50.984;7.022;2023-02-28T05:51:48;2.57;;;1.73;;
12445;SDS011;6287;50.984;7.022;2023-02-28T05:54:16;1.53;;;1.43;;
12445;SDS011;6287;50.984;7.022;2023-02-28T05:56:46;1.30;;;1.20;;
12445;SDS011;6287;50.984;7.022;2023-02-28T05:59:14;2.53;;;1.20;;
12445;SDS011;6287;50.984;7.022;2023-02-28T06:01:46;1.50;;;1.40;;
12445;SDS011;6287;50.984;7.022;2023-02-28T06:04:15;1.83;;;1.57;;
12445;SDS011;6287;50.984;7.022;2023-02-28T06:06:45;1.47;;;1.20;;
12445;SDS011;6287;50.984;7.022;2023-02-28T06:09:12;2.73;;;1.50;;
12445;SDS011;6287;50.984;7.022;2023-02-28T06:11:39;3.10;;;1.80;;
12445;SDS011;6287;50.984;7.022;2023-02-28T06:14:05;1.57;;;1.53;;
12445;SDS011;6287;50.984;7.022;2023-02-28T06:16:34;2.67;;;1.40;;
12445;SDS011;6287;50.984;7.022;2023-02-28T06:19:01;1.80;;;1.70;;
12445;SDS011;6287;50.984;7.022;2023-02-28T06:21:28;1.83;;;1.37;;
12445;SDS011;6287;50.984;7.022;2023-02-28T06:23:55;1.43;;;1.40;;
12445;SDS011;6287;50.984;7.022;2023-02-28T06:26:24;3.37;;;1.60;;
12445;SDS011;6287;50.984;7.022;2023-02-28T06:28:50;2.17;;;1.73;;
12445;SDS011;6287;50.984;7.022;2023-02-28T06:31:20;1.77;;;1.67;;
12445;SDS011;6287;50.984;7.022;2023-02-28T06:33:50;3.00;;;1.80;;
12445;SDS011;6287;50.984;7.022;2023-02-28T06:36:16;1.73;;;1.60;;
12445;SDS011;6287;50.984;7.022;2023-02-28T06:38:42;1.60;;;1.50;;
12445;SDS011;6287;50.984;7.022;2023-02-28T06:41:08;2.63;;;1.87;;
12445;SDS011;6287;50.984;7.022;2023-02-28T06:43:41;2.20;;;1.87;;
12445;SDS011;6287;50.984;7.022;2023-02-28T06:46:11;3.10;;;1.60;;
12445;SDS011;6287;50.984;7.022;2023-02-28T06:48:38;1.90;;;1.47;;
12445;SDS011;6287;50.984;7.022;2023-02-28T06:51:12;2.70;;;1.83;;
12445;SDS011;6287;50.984;7.022;2023-02-28T06:53:50;2.30;;;1.90;;
12445;SDS011;6287;50.984;7.022;2023-02-28T06:56:16;4.33;;;1.67;;
12445;SDS011;6287;50.984;7.022;2023-02-28T06:58:46;2.30;;;2.10;;
12445;SDS011;6287;50.984;7.022;2023-02-28T07:01:15;4.87;;;2.00;;
12445;SDS011;6287;50.984;7.022;2023-02-28T07:03:41;2.63;;;1.53;;
12445;SDS011;6287;50.984;7.022;2023-02-28T07:06:11;1.70;;;1.60;;
12445;SDS011;6287;50.984;7.022;2023-02-28T07:08:37;1.63;;;1.30;;
12445;SDS011;6287;50.984;7.022;2023-02-28T07:11:05;1.73;;;1.60;;
12445;SDS011;6287;50.984;7.022;2023-02-28T07:13:33;2.43;;;1.70;;
12445;SDS011;6287;50.984;7.022;2023-02-28T07:15:59;1.70;;;1.60;;
12445;SDS011;6287;50.984;7.022;2023-02-28T07:18:30;2.60;;;1.67;;
12445;SDS011;6287;50.984;7.022;2023-02-28T07:21:01;1.77;;;1.60;;
12445;SDS011;6287;50.984;7.022;2023-02-28T07:23:27;1.93;;;1.83;;
12445;SDS011;6287;50.984;7.022;2023-02-28T07:25:55;2.10;;;1.57;;
12445;SDS011;6287;50.984;7.022;2023-02-28T07:28:23;3.33;;;1.73;;
12445;SDS011;6287;50.984;7.022;2023-02-28T07:30:51;2.10;;;1.80;;
12445;SDS011;6287;50.984;7.022;2023-02-28T07:33:17;2.07;;;1.20;;
12445;SDS011;6287;50.984;7.022;2023-02-28T07:35:43;1.47;;;1.37;;
12445;SDS011;6287;50.984;7.022;2023-02-28T07:38:08;1.80;;;1.57;;
12445;SDS011;6287;50.984;7.022;2023-02-28T07:40:34;1.20;;;1.10;;
12445;SDS011;6287;50.984;7.022;2023-02-28T07:43:05;1.43;;;1.40;;
12445;SDS011;6287;50.984;7.022;2023-02-28T07:45:30;2.30;;;1.43;;
12445;SDS011;6287;50.984;7.022;2023-02-28T07:47:59;1.40;;;1.30;;
12445;SDS011;6287;50.984;7.022;2023-02-28T07:50:27;1.63;;;1.53;;
12445;SDS011;6287;50.984;7.022;2023-02-28T07:52:58;1.40;;;1.30;;
12445;SDS011;6287;50.984;7.022;2023-02-28T07:55:24;1.87;;;1.77;;
12445;SDS011;6287;50.984;7.022;2023-02-28T07:57:52;1.60;;;1.50;;
12445;SDS011;6287;50.984;7.022;2023-02-28T08:00:21;1.50;;;1.40;;
12445;SDS011;6287;50.984;7.022;2023-02-28T08:02:47;1.30;;;1.20;;
12445;SDS011;6287;50.984;7.022;2023-02-28T08:05:17;1.40;;;1.30;;
12445;SDS011;6287;50.984;7.022;2023-02-28T08:07:43;1.40;;;1.30;;
12445;SDS011;6287;50.984;7.022;2023-02-28T08:10:11;1.80;;;1.70;;
12445;SDS011;6287;50.984;7.022;2023-02-28T08:12:39;3.07;;;1.20;;
12445;SDS011;6287;50.984;7.022;2023-02-28T08:15:07;1.13;;;1.10;;
12445;SDS011;6287;50.984;7.022;2023-02-28T08:17:35;1.37;;;1.27;;
12445;SDS011;6287;50.984;7.022;2023-02-28T08:20:03;1.40;;;1.33;;
12445;SDS011;6287;50.984;7.022;2023-02-28T08:22:32;1.43;;;1.30;;
12445;SDS011;6287;50.984;7.022;2023-02-28T08:25:01;2.40;;;1.20;;
12445;SDS011;6287;50.984;7.022;2023-02-28T08:27:29;1.50;;;1.40;;
12445;SDS011;6287;50.984;7.022;2023-02-28T08:30:00;1.73;;;1.37;;
12445;SDS011;6287;50.984;7.022;2023-02-28T08:32:25;1.40;;;1.30;;
12445;SDS011;6287;50.984;7.022;2023-02-28T08:34:53;0.90;;;0.90;;
12445;SDS011;6287;50.984;7.022;2023-02-28T08:37:19;1.10;;;1.10;;
12445;SDS011;6287;50.984;7.022;2023-02-28T08:39:45;1.50;;;1.20;;
12445;SDS011;6287;50.984;7.022;2023-02-28T08:42:10;1.47;;;1.30;;
12445;SDS011;6287;50.984;7.022;2023-02-28T08:44:36;1.40;;;1.30;;
12445;SDS011;6287;50.984;7.022;2023-02-28T08:47:05;1.47;;;1.00;;
12445;SDS011;6287;50.984;7.022;2023-02-28T08:49:33;1.10;;;1.10;;
12445;SDS011;6287;50.984;7.022;2023-02-28T08:52:01;1.07;;;1.07;;
12445;SDS011;6287;50.984;7.022;2023-02-28T08:54:30;1.20;;;1.10;;
12445;SDS011;6287;50.984;7.022;2023-02-28T08:56:57;1.00;;;1.00;;
12445;SDS011;6287;50.984;7.022;2023-02-28T08:59:22;2.20;;;1.10;;
12445;SDS011;6287;50.984;7.022;2023-02-28T09:01:53;0.90;;;0.90;;
12445;SDS011;6287;50.984;7.022;2023-02-28T09:04:21;1.07;;;1.07;;
12445;SDS011;6287;50.984;7.022;2023-02-28T09:06:49;1.13;;;1.10;;
12445;SDS011;6287;50.984;7.022;2023-02-28T09:09:17;2.13;;;1.07;;
12445;SDS011;6287;50.984;7.022;2023-02-28T09:11:45;0.90;;;0.90;;
12445;SDS011;6287;50.984;7.022;2023-02-28T09:14:12;1.00;;;1.00;;
12445;SDS011;6287;50.984;7.022;2023-02-28T09:16:37;0.90;;;0.90;;
12445;SDS011;6287;50.984;7.022;2023-02-28T09:19:05;1.00;;;1.00;;
12445;SDS011;6287;50.984;7.022;2023-02-28T09:21:31;0.87;;;0.87;;
12445;SDS011;6287;50.984;7.022;2023-02-28T09:23:58;1.30;;;1.20;;
12445;SDS011;6287;50.984;7.022;2023-02-28T09:26:26;1.10;;;1.10;;
12445;SDS011;6287;50.984;7.022;2023-02-28T09:28:55;0.90;;;0.90;;
12445;SDS011;6287;50.984;7.022;2023-02-28T09:31:24;1.00;;;1.00;;
12445;SDS011;6287;50.984;7.022;2023-02-28T09:33:53;1.00;;;1.00;;
12445;SDS011;6287;50.984;7.022;2023-02-28T09:36:21;0.80;;;0.80;;
12445;SDS011;6287;50.984;7.022;2023-02-28T09:38:51;1.57;;;1.10;;
12445;SDS011;6287;50.984;7.022;2023-02-28T09:41:19;0.83;;;0.83;;
12445;SDS011;6287;50.984;7.022;2023-02-28T09:43:50;1.17;;;0.93;;
12445;SDS011;6287;50.984;7.022;2023-02-28T09:46:40;0.80;;;0.80;;
12445;SDS011;6287;50.984;7.022;2023-02-28T09:49:14;1.00;;;1.00;;
12445;SDS011;6287;50.984;7.022;2023-02-28T09:54:29;1.27;;;1.00;;
12445;SDS011;6287;50.984;7.022;2023-02-28T09:56:59;1.30;;;1.20;;
12445;SDS011;6287;50.984;7.022;2023-02-28T10:00:13;1.00;;;1.00;;
12445;SDS011;6287;50.984;7.022;2023-02-28T10:05:13;2.83;;;1.20;;
12445;SDS011;6287;50.984;7.022;2023-02-28T10:16:10;1.00;;;0.93;;
12445;SDS011;6287;50.984;7.022;2023-02-28T10:18:47;1.20;;;0.90;;
12445;SDS011;6287;50.984;7.022;2023-02-28T10:24:19;1.00;;;1.00;;
12445;SDS011;6287;50.984;7.022;2023-02-28T10:26:56;1.30;;;1.20;;
12445;SDS011;6287;50.984;7.022;2023-02-28T10:29:25;1.00;;;1.00;;
12445;SDS011;6287;50.984;7.022;2023-02-28T10:31:52;1.13;;;1.03;;
12445;SDS011;6287;50.984;7.022;2023-02-28T10:34:17;1.20;;;1.10;;
12445;SDS011;6287;50.984;7.022;2023-02-28T10:36:43;2.00;;;1.27;;
12445;SDS011;6287;50.984;7.022;2023-02-28T10:42:02;1.30;;;1.00;;
12445;SDS011;6287;50.984;7.022;2023-02-28T10:44:29;1.67;;;1.13;;
12445;SDS011;6287;50.984;7.022;2023-02-28T10:46:54;1.30;;;1.20;;
12445;SDS011;6287;50.984;7.022;2023-02-28T10:49:24;1.43;;;1.33;;
12445;SDS011;6287;50.984;7.022;2023-02-28T10:52:02;1.40;;;1.27;;
12445;SDS011;6287;50.984;7.022;2023-02-28T10:54:33;2.53;;;1.07;;
12445;SDS011;6287;50.984;7.022;2023-02-28T10:59:49;1.17;;;1.10;;
12445;SDS011;6287;50.984;7.022;2023-02-28T11:02:36;2.20;;;1.00;;
12445;SDS011;6287;50.984;7.022;2023-02-28T11:08:02;1.67;;;1.50;;
12445;SDS011;6287;50.984;7.022;2023-02-28T11:10:35;1.20;;;1.20;;
12445;SDS011;6287;50.984;7.022;2023-02-28T11:13:06;2.40;;;1.30;;
12445;SDS011;6287;50.984;7.022;2023-02-28T11:15:41;2.10;;;1.43;;
12445;SDS011;6287;50.984;7.022;2023-02-28T11:20:48;3.50;;;1.30;;
12445;SDS011;6287;50.984;7.022;2023-02-28T11:23:21;2.80;;;1.13;;
12445;SDS011;6287;50.984;7.022;2023-02-28T11:25:59;2.40;;;1.40;;
12445;SDS011;6287;50.984;7.022;2023-02-28T11:28:33;1.30;;;1.20;;
12445;SDS011;6287;50.984;7.022;2023-02-28T11:31:01;1.47;;;1.37;;
12445;SDS011;6287;50.984;7.022;2023-02-28T11:36:22;1.93;;;1.40;;
12445;SDS011;6287;50.984;7.022;2023-02-28T11:38:51;2.13;;;1.30;;
12445;SDS011;6287;50.984;7.022;2023-02-28T11:44:16;1.40;;;1.30;;
12445;SDS011;6287;50.984;7.022;2023-02-28T11:46:52;1.30;;;1.20;;
12445;SDS011;6287;50.984;7.022;2023-02-28T11:51:54;3.07;;;1.70;;
12445;SDS011;6287;50.984;7.022;2023-02-28T11:57:14;1.50;;;1.40;;
12445;SDS011;6287;50.984;7.022;2023-02-28T12:00:06;1.43;;;1.20;;
12445;SDS011;6287;50.984;7.022;2023-02-28T12:05:45;1.60;;;1.40;;
12445;SDS011;6287;50.984;7.022;2023-02-28T12:25:02;1.93;;;1.60;;
12445;SDS011;6287;50.984;7.022;2023-02-28T12:27:33;1.47;;;1.37;;
12445;SDS011;6287;50.984;7.022;2023-02-28T12:30:17;1.60;;;1.50;;
12445;SDS011;6287;50.984;7.022;2023-02-28T12:32:56;2.30;;;1.60;;
12445;SDS011;6287;50.984;7.022;2023-02-28T12:35:38;2.77;;;1.50;;
12445;SDS011;6287;50.984;7.022;2023-02-28T12:38:21;1.40;;;1.30;;
12445;SDS011;6287;50.984;7.022;2023-02-28T12:41:05;2.33;;;1.67;;
12445;SDS011;6287;50.984;7.022;2023-02-28T12:43:53;1.50;;;1.40;;
12445;SDS011;6287;50.984;7.022;2023-02-28T12:46:27;2.00;;;1.80;;
12445;SDS011;6287;50.984;7.022;2023-02-28T12:49:02;1.73;;;1.53;;
12445;SDS011;6287;50.984;7.022;2023-02-28T12:51:33;4.03;;;1.63;;
12445;SDS011;6287;50.984;7.022;2023-02-28T12:54:38;1.90;;;1.60;;
12445;SDS011;6287;50.984;7.022;2023-02-28T12:57:13;1.43;;;1.33;;
12445;SDS011;6287;50.984;7.022;2023-02-28T12:59:51;1.47;;;1.37;;
12445;SDS011;6287;50.984;7.022;2023-02-28T13:05:36;1.93;;;1.53;;
12445;SDS011;6287;50.984;7.022;2023-02-28T13:08:43;1.67;;;1.57;;
12445;SDS011;6287;50.984;7.022;2023-02-28T13:11:33;1.60;;;1.50;;
12445;SDS011;6287;50.984;7.022;2023-02-28T13:14:06;2.70;;;2.33;;
12445;SDS011;6287;50.984;7.022;2023-02-28T13:22:19;1.77;;;1.67;;
12445;SDS011;6287;50.984;7.022;2023-02-28T13:25:49;1.70;;;1.60;;
12445;SDS011;6287;50.984;7.022;2023-02-28T13:28:13;1.87;;;1.77;;
12445;SDS011;6287;50.984;7.022;2023-02-28T13:31:01;1.40;;;1.30;;
12445;SDS011;6287;50.984;7.022;2023-02-28T13:36:31;1.90;;;1.70;;
12445;SDS011;6287;50.984;7.022;2023-02-28T13:39:01;1.67;;;1.50;;
12445;SDS011;6287;50.984;7.022;2023-02-28T13:46:34;1.70;;;1.60;;
12445;SDS011;6287;50.984;7.022;2023-02-28T13:49:26;2.13;;;1.70;;
12445;SDS011;6287;50.984;7.022;2023-02-28T14:00:43;1.60;;;1.50;;
12445;SDS011;6287;50.984;7.022;2023-02-28T14:03:23;1.40;;;1.30;;
12445;SDS011;6287;50.984;7.022;2023-02-28T14:08:44;1.83;;;1.60;;
12445;SDS011;6287;50.984;7.022;2023-02-28T14:11:39;2.63;;;1.60;;
12445;SDS011;6287;50.984;7.022;2023-02-28T14:14:53;1.77;;;1.67;;
12445;SDS011;6287;50.984;7.022;2023-02-28T14:16:59;2.27;;;1.60;;
12445;SDS011;6287;50.984;7.022;2023-02-28T14:19:30;1.93;;;1.80;;
12445;SDS011;6287;50.984;7.022;2023-02-28T14:27:40;1.97;;;1.80;;
12445;SDS011;6287;50.984;7.022;2023-02-28T14:30:43;2.60;;;1.80;;
12445;SDS011;6287;50.984;7.022;2023-02-28T14:36:21;2.10;;;2.00;;
12445;SDS011;6287;50.984;7.022;2023-02-28T14:38:52;2.03;;;1.83;;
12445;SDS011;6287;50.984;7.022;2023-02-28T14:41:36;2.10;;;1.80;;
12445;SDS011;6287;50.984;7.022;2023-02-28T14:44:16;2.33;;;1.83;;
12445;SDS011;6287;50.984;7.022;2023-02-28T14:46:48;2.80;;;1.90;;
12445;SDS011;6287;50.984;7.022;2023-02-28T14:51:50;2.00;;;1.87;;
12445;SDS011;6287;50.984;7.022;2023-02-28T14:54:37;2.73;;;1.90;;
12445;SDS011;6287;50.984;7.022;2023-02-28T14:57:05;1.97;;;1.77;;
12445;SDS011;6287;50.984;7.022;2023-02-28T14:59:56;1.93;;;1.73;;
12445;SDS011;6287;50.984;7.022;2023-02-28T15:02:36;1.60;;;1.50;;
12445;SDS011;6287;50.984;7.022;2023-02-28T15:07:37;1.70;;;1.60;;
12445;SDS011;6287;50.984;7.022;2023-02-28T15:12:41;3.17;;;2.10;;
12445;SDS011;6287;50.984;7.022;2023-02-28T15:15:16;1.90;;;1.80;;
12445;SDS011;6287;50.984;7.022;2023-02-28T15:17:46;3.40;;;1.80;;
12445;SDS011;6287;50.984;7.022;2023-02-28T15:20:17;2.67;;;1.80;;
12445;SDS011;6287;50.984;7.022;2023-02-28T15:22:44;1.80;;;1.70;;
12445;SDS011;6287;50.984;7.022;2023-02-28T15:25:13;2.30;;;1.60;;
12445;SDS011;6287;50.984;7.022;2023-02-28T15:27:49;1.83;;;1.60;;
12445;SDS011;6287;50.984;7.022;2023-02-28T15:30:19;1.53;;;1.43;;
12445;SDS011;6287;50.984;7.022;2023-02-28T15:33:01;1.90;;;1.80;;
12445;SDS011;6287;50.984;7.022;2023-02-28T15:35:28;2.63;;;1.80;;
12445;SDS011;6287;50.984;7.022;2023-02-28T15:38:00;2.43;;;1.80;;
12445;SDS011;6287;50.984;7.022;2023-02-28T15:40:44;3.97;;;1.90;;
12445;SDS011;6287;50.984;7.022;2023-02-28T15:43:39;4.30;;;1.90;;
12445;SDS011;6287;50.984;7.022;2023-02-28T15:46:06;2.67;;;1.73;;
12445;SDS011;6287;50.984;7.022;2023-02-28T15:48:44;2.20;;;2.00;;
12445;SDS011;6287;50.984;7.022;2023-02-28T15:51:24;2.77;;;1.60;;
12445;SDS011;6287;50.984;7.022;2023-02-28T15:54:05;1.50;;;1.50;;
12445;SDS011;6287;50.984;7.022;2023-02-28T15:56:38;2.10;;;1.90;;
12445;SDS011;6287;50.984;7.022;2023-02-28T15:59:12;4.23;;;2.90;;
12445;SDS011;6287;50.984;7.022;2023-02-28T16:01:41;2.80;;;2.37;;
12445;SDS011;6287;50.984;7.022;2023-02-28T16:06:46;2.00;;;1.80;;
12445;SDS011;6287;50.984;7.022;2023-02-28T16:09:26;2.83;;;1.67;;
12445;SDS011;6287;50.984;7.022;2023-02-28T16:11:59;1.80;;;1.70;;
12445;SDS011;6287;50.984;7.022;2023-02-28T16:14:31;1.87;;;1.70;;
12445;SDS011;6287;50.984;7.022;2023-02-28T16:17:02;1.60;;;1.50;;
12445;SDS011;6287;50.984;7.022;2023-02-28T16:19:31;2.20;;;2.07;;
12445;SDS011;6287;50.984;7.022;2023-02-28T16:21:57;1.73;;;1.63;;
12445;SDS011;6287;50.984;7.022;2023-02-28T16:24:23;2.43;;;1.63;;
12445;SDS011;6287;50.984;7.022;2023-02-28T16:26:49;2.00;;;1.90;;
12445;SDS011;6287;50.984;7.022;2023-02-28T16:29:38;2.77;;;1.87;;
12445;SDS011;6287;50.984;7.022;2023-02-28T16:32:06;2.00;;;1.63;;
12445;SDS011;6287;50.984;7.022;2023-02-28T16:34:38;1.80;;;1.70;;
12445;SDS011;6287;50.984;7.022;2023-02-28T16:37:24;2.10;;;1.90;;
12445;SDS011;6287;50.984;7.022;2023-02-28T16:39:52;3.57;;;1.63;;
12445;SDS011;6287;50.984;7.022;2023-02-28T16:42:23;2.97;;;1.80;;
12445;SDS011;6287;50.984;7.022;2023-02-28T16:44:52;1.63;;;1.53;;
12445;SDS011;6287;50.984;7.022;2023-02-28T16:47:19;2.10;;;1.90;;
12445;SDS011;6287;50.984;7.022;2023-02-28T16:49:48;1.70;;;1.60;;
12445;SDS011;6287;50.984;7.022;2023-02-28T16:52:14;2.57;;;1.83;;
12445;SDS011;6287;50.984;7.022;2023-02-28T16:54:40;3.43;;;1.87;;
12445;SDS011;6287;50.984;7.022;2023-02-28T16:57:06;2.13;;;1.97;;
12445;SDS011;6287;50.984;7.022;2023-02-28T16:59:47;1.93;;;1.83;;
12445;SDS011;6287;50.984;7.022;2023-02-28T17:02:14;2.00;;;1.90;;
12445;SDS011;6287;50.984;7.022;2023-02-28T17:04:44;1.97;;;1.87;;
12445;SDS011;6287;50.984;7.022;2023-02-28T17:07:12;3.20;;;2.17;;
12445;SDS011;6287;50.984;7.022;2023-02-28T17:09:42;3.23;;;1.87;;
12445;SDS011;6287;50.984;7.022;2023-02-28T17:12:10;1.87;;;1.70;;
12445;SDS011;6287;50.984;7.022;2023-02-28T17:14:36;2.47;;;1.97;;
12445;SDS011;6287;50.984;7.022;2023-02-28T17:17:06;1.83;;;1.60;;
12445;SDS011;6287;50.984;7.022;2023-02-28T17:19:40;2.33;;;1.67;;
12445;SDS011;6287;50.984;7.022;2023-02-28T17:22:09;1.90;;;1.80;;
12445;SDS011;6287;50.984;7.022;2023-02-28T17:24:39;1.53;;;1.43;;
12445;SDS011;6287;50.984;7.022;2023-02-28T17:27:11;2.23;;;1.80;;
12445;SDS011;6287;50.984;7.022;2023-02-28T17:29:41;3.37;;;2.27;;
12445;SDS011;6287;50.984;7.022;2023-02-28T17:32:07;2.20;;;2.10;;
12445;SDS011;6287;50.984;7.022;2023-02-28T17:34:32;2.30;;;2.10;;
12445;SDS011;6287;50.984;7.022;2023-02-28T17:36:58;3.43;;;2.10;;
12445;SDS011;6287;50.984;7.022;2023-02-28T17:39:23;2.37;;;1.90;;
12445;SDS011;6287;50.984;7.022;2023-02-28T17:41:55;2.93;;;2.50;;
12445;SDS011;6287;50.984;7.022;2023-02-28T17:44:21;2.10;;;2.00;;
12445;SDS011;6287;50.984;7.022;2023-02-28T17:46:49;2.73;;;1.90;;
12445;SDS011;6287;50.984;7.022;2023-02-28T17:49:20;3.40;;;2.57;;
12445;SDS011;6287;50.984;7.022;2023-02-28T17:51:47;2.40;;;2.20;;
12445;SDS011;6287;50.984;7.022;2023-02-28T17:54:13;4.77;;;2.93;;
12445;SDS011;6287;50.984;7.022;2023-02-28T17:56:43;3.83;;;2.57;;
12445;SDS011;6287;50.984;7.022;2023-02-28T17:59:09;4.37;;;3.37;;
12445;SDS011;6287;50.984;7.022;2023-02-28T18:01:38;4.47;;;3.33;;